Rivas, Nicaragua

4:39 PM CST on December 08, 2016 (GMT -0600)
Rivas | | Change Station

Elev 174 ft 11.43 °N, 85.84 °W | Updated 39 minutes ago

Partly Cloudy
Partly Cloudy
81 °F
Feels Like 85 °F
N
7
Wind Variable Wind from NNE

Today
High -- | Low -- °F
--% Chance of Precip.
Yesterday
High -- | Low -- °F
Precip. -- in
Pressure 29.83 in
Visibility 5.0 miles
Clouds Few 1200 ft
Scattered Clouds 1300 ft
Heat Index 85 °F
Dew Point 72 °F
Humidity 74%
Rainfall 0.00 in
Snow Depth Not available.
5:51 AM 5:19 PM
Waxing Gibbous, 67% visible
METAR MNRS 082200Z 02006KT 8000 VCRA FEW012CB SCT013 27/22 Q1010 CBRA N/NE/E/SE/S/SW
Pressure 29.83 in
Visibility 5.0 miles
Clouds Few 1200 ft
Scattered Clouds 1300 ft
Heat Index 85 °F
Dew Point 72 °F
Humidity 74%
Rainfall 0.00 in
Snow Depth Not available.
5:51 AM 5:19 PM
Waxing Gibbous, 67% visible
METAR MNRS 082200Z 02006KT 8000 VCRA FEW012CB SCT013 27/22 Q1010 CBRA N/NE/E/SE/S/SW

10-Day Weather Forecast

No radar image for this location.
×

Almanac

Astronomy

Dec. 08, 2016 Rise Set
Actual Time
Civil Twilight
Nautical Twilight
Astronomical Twilight
Moon
Length of Visible Light
Length of Day
Tomorrow will be .
, % of the Moon is Illuminated

Today's Extremes

Country Highs Country Lows

Community

WunderPhotos

Upload Photos

1,956,277 photos uploaded!

WunderBlog® & News

Nearby

Air Quality

  Air Quality AQ Index Pollutant
Not available.

Snow Depth

Station Depth Elevation

Earthquake Activity

City Distance Mag. Time & Date
Minimum magnitude displayed is 2.5.

Coastal Water Temperatures

Place Temperature

Stations

Nearby Weather Stations

Station Location Temp. Windchill Dew Point Humidity Wind Precip. Elev Updated Type